Time;durP1;ratioP1;P1;durP2;ratioP2;P2;SDS_P1;SDS_P2;PMS_P1;PMS_P2;Temp;Humidity;BMP_temperature;BMP_pressure;BME280_temperature;BME280_humidity;BME280_pressure;Samples;Min_cycle;Max_cycle;Signal;HPM_P1;HPM_P2
2020/12/14 00:01:17;;;;;;;6.73;2.93;;;;;;;;;;5013516;28;20546;-68
2020/12/14 00:03:42;;;;;;;7.53;2.93;;;;;;;;;;5024303;28;20216;-69
2020/12/14 00:06:08;;;;;;;6.57;3.17;;;;;;;;;;5014397;28;20316;-70
2020/12/14 00:08:34;;;;;;;10.60;3.17;;;;;;;;;;5024178;28;20228;-69
2020/12/14 00:10:59;;;;;;;7.90;3.00;;;;;;;;;;5025172;28;21987;-70
2020/12/14 00:13:24;;;;;;;7.43;3.63;;;;;;;;;;5015825;28;20657;-70
2020/12/14 00:15:50;;;;;;;14.57;3.07;;;;;;;;;;5021894;28;20642;-70
2020/12/14 00:18:15;;;;;;;6.93;3.33;;;;;;;;;;5014953;28;20178;-70
2020/12/14 00:20:40;;;;;;;10.13;3.50;;;;;;;;;;5022740;28;20194;-70
2020/12/14 00:23:06;;;;;;;6.77;3.33;;;;;;;;;;5008596;28;20197;-70
2020/12/14 00:25:31;;;;;;;11.37;3.80;;;;;;;;;;5025712;28;20182;-70
2020/12/14 00:27:56;;;;;;;12.40;3.50;;;;;;;;;;5015400;28;20253;-70
2020/12/14 00:30:22;;;;;;;7.00;3.50;;;;;;;;;;5023925;28;20286;-71
2020/12/14 00:32:47;;;;;;;8.83;3.80;;;;;;;;;;5017741;28;20209;-70
2020/12/14 00:35:12;;;;;;;8.53;3.70;;;;;;;;;;5026095;28;20206;-70
2020/12/14 00:37:38;;;;;;;10.03;4.00;;;;;;;;;;5020021;28;20178;-70
2020/12/14 00:40:03;;;;;;;13.83;4.27;;;;;;;;;;5024873;28;20198;-70
2020/12/14 00:42:28;;;;;;;10.27;4.00;;;;;;;;;;5030272;28;20197;-70
2020/12/14 00:44:54;;;;;;;9.23;4.10;;;;;;;;;;5014347;28;20609;-71
2020/12/14 00:47:19;;;;;;;8.27;3.50;;;;;;;;;;5029981;28;20217;-70
2020/12/14 00:49:44;;;;;;;10.37;3.80;;;;;;;;;;5015086;28;20186;-70
2020/12/14 00:52:10;;;;;;;11.13;3.47;;;;;;;;;;5028831;28;20688;-70
2020/12/14 00:54:35;;;;;;;12.97;4.40;;;;;;;;;;5016258;28;20217;-70
2020/12/14 00:57:01;;;;;;;8.27;3.73;;;;;;;;;;5029880;28;20188;-70
2020/12/14 00:59:26;;;;;;;7.60;4.10;;;;;;;;;;5016176;28;20645;-70
2020/12/14 01:01:52;;;;;;;13.63;4.50;;;;;;;;;;5029116;28;20205;-70
2020/12/14 01:04:19;;;;;;;8.03;4.43;;;;;;;;;;5015897;28;20185;-70
2020/12/14 01:06:44;;;;;;;9.20;3.73;;;;;;;;;;5029320;28;20419;-70
2020/12/14 01:09:10;;;;;;;10.17;4.30;;;;;;;;;;5021610;28;20190;-70
2020/12/14 01:11:35;;;;;;;9.03;4.50;;;;;;;;;;5025472;28;20640;-70
2020/12/14 01:14:01;;;;;;;10.47;4.30;;;;;;;;;;5025410;28;20190;-70
2020/12/14 01:16:26;;;;;;;8.17;3.70;;;;;;;;;;5020294;28;20174;-70
2020/12/14 01:18:51;;;;;;;8.07;3.70;;;;;;;;;;5024821;28;20198;-70
2020/12/14 01:21:21;;;;;;;11.53;4.17;;;;;;;;;;5021497;28;20186;-70
2020/12/14 01:23:46;;;;;;;9.83;4.23;;;;;;;;;;5024545;28;20645;-70
2020/12/14 01:26:11;;;;;;;8.70;4.07;;;;;;;;;;5016577;28;20206;-70
2020/12/14 01:28:37;;;;;;;10.80;4.40;;;;;;;;;;5021298;28;20310;-71
2020/12/14 01:31:02;;;;;;;12.07;4.17;;;;;;;;;;5018495;28;20267;-70
2020/12/14 01:33:27;;;;;;;8.23;3.60;;;;;;;;;;5023868;28;20317;-70
2020/12/14 01:35:53;;;;;;;9.00;4.10;;;;;;;;;;5018164;28;20190;-70
2020/12/14 01:38:18;;;;;;;10.20;3.97;;;;;;;;;;5025132;28;20185;-70
2020/12/14 01:40:43;;;;;;;11.13;3.47;;;;;;;;;;5021648;28;20196;-70
2020/12/14 01:43:09;;;;;;;10.50;4.07;;;;;;;;;;5019318;28;21310;-70
2020/12/14 01:45:34;;;;;;;9.67;3.57;;;;;;;;;;5020943;28;20186;-71
2020/12/14 01:48:03;;;;;;;6.90;3.30;;;;;;;;;;5013999;28;20209;-70
2020/12/14 01:50:29;;;;;;;7.67;3.73;;;;;;;;;;5029496;28;20668;-70
2020/12/14 01:52:59;;;;;;;7.67;3.70;;;;;;;;;;5014757;28;20186;-70
2020/12/14 01:55:30;;;;;;;9.03;3.70;;;;;;;;;;5027478;28;20188;-70
2020/12/14 01:57:55;;;;;;;7.83;3.90;;;;;;;;;;5011347;28;20274;-70
2020/12/14 02:00:20;;;;;;;9.77;4.13;;;;;;;;;;5027401;28;20264;-70
2020/12/14 02:02:46;;;;;;;9.00;3.80;;;;;;;;;;5015937;28;20284;-70
2020/12/14 02:05:11;;;;;;;10.53;4.17;;;;;;;;;;5029386;28;20190;-70
2020/12/14 02:07:36;;;;;;;9.10;3.70;;;;;;;;;;5014743;28;20221;-70
2020/12/14 02:10:02;;;;;;;7.40;3.70;;;;;;;;;;5025810;28;20189;-70
2020/12/14 02:12:28;;;;;;;9.87;4.03;;;;;;;;;;5013080;28;20190;-71
2020/12/14 02:14:55;;;;;;;10.47;4.20;;;;;;;;;;5043425;28;20561;-70
2020/12/14 02:17:22;;;;;;;11.37;4.00;;;;;;;;;;5020385;28;20737;-70
2020/12/14 02:19:48;;;;;;;9.20;3.63;;;;;;;;;;5015164;28;20590;-70
2020/12/14 02:22:16;;;;;;;10.60;3.83;;;;;;;;;;5026045;28;20285;-70
2020/12/14 02:24:45;;;;;;;8.63;4.00;;;;;;;;;;5021865;28;21340;-70
2020/12/14 02:27:13;;;;;;;7.60;3.23;;;;;;;;;;5026939;28;20671;-70
2020/12/14 02:29:40;;;;;;;7.93;3.30;;;;;;;;;;5023549;28;20665;-70
2020/12/14 02:32:05;;;;;;;8.13;3.67;;;;;;;;;;5027049;28;20194;-70
2020/12/14 02:34:30;;;;;;;7.90;3.40;;;;;;;;;;5023047;28;20229;-70
2020/12/14 02:36:56;;;;;;;9.40;3.63;;;;;;;;;;5028697;28;20632;-70
2020/12/14 02:39:21;;;;;;;9.10;3.20;;;;;;;;;;5023091;28;20189;-70
2020/12/14 02:41:46;;;;;;;10.47;3.53;;;;;;;;;;5026431;28;20197;-70
2020/12/14 02:44:12;;;;;;;7.30;3.63;;;;;;;;;;5018574;28;20574;-70
2020/12/14 02:46:40;;;;;;;7.53;3.57;;;;;;;;;;5023980;28;20214;-70
2020/12/14 02:49:05;;;;;;;8.47;3.23;;;;;;;;;;5027174;28;20186;-70
2020/12/14 02:51:30;;;;;;;6.33;2.90;;;;;;;;;;5017234;28;20277;-70
2020/12/14 02:53:56;;;;;;;7.30;3.40;;;;;;;;;;5032429;28;20194;-70
2020/12/14 02:56:21;;;;;;;8.43;3.57;;;;;;;;;;5019404;28;20186;-70
2020/12/14 02:58:46;;;;;;;6.80;3.20;;;;;;;;;;5029078;28;20178;-70
2020/12/14 03:01:12;;;;;;;7.60;2.90;;;;;;;;;;5020345;28;20186;-70
2020/12/14 03:03:37;;;;;;;5.53;3.00;;;;;;;;;;5029676;28;20186;-70
2020/12/14 03:06:03;;;;;;;4.67;2.97;;;;;;;;;;5014966;28;20196;-70
2020/12/14 03:08:28;;;;;;;7.67;2.80;;;;;;;;;;5032115;28;20209;-70
2020/12/14 03:10:53;;;;;;;8.23;2.70;;;;;;;;;;5019103;28;20236;-70
2020/12/14 03:13:18;;;;;;;6.80;3.20;;;;;;;;;;5028516;28;20189;-70
2020/12/14 03:15:44;;;;;;;6.13;3.03;;;;;;;;;;5018899;28;20182;-70
2020/12/14 03:18:09;;;;;;;10.77;3.37;;;;;;;;;;5029152;28;20182;-70
2020/12/14 03:20:35;;;;;;;5.00;2.60;;;;;;;;;;5024878;28;20202;-70
2020/12/14 03:23:00;;;;;;;5.57;2.60;;;;;;;;;;5015917;28;20186;-71
2020/12/14 03:25:26;;;;;;;4.77;2.43;;;;;;;;;;5029873;28;20186;-70
2020/12/14 03:27:52;;;;;;;8.90;2.77;;;;;;;;;;5014693;28;20284;-70
2020/12/14 03:30:18;;;;;;;7.53;2.53;;;;;;;;;;5028783;28;20186;-70
2020/12/14 03:32:43;;;;;;;7.37;2.60;;;;;;;;;;5021291;28;20192;-70
2020/12/14 03:35:08;;;;;;;6.77;2.50;;;;;;;;;;5025305;28;20215;-70
2020/12/14 03:37:34;;;;;;;5.47;2.37;;;;;;;;;;5019338;28;20217;-70
2020/12/14 03:39:59;;;;;;;5.37;2.60;;;;;;;;;;5026759;28;20178;-70
2020/12/14 03:42:24;;;;;;;8.97;2.83;;;;;;;;;;5020329;28;20189;-70
2020/12/14 03:44:49;;;;;;;7.13;2.60;;;;;;;;;;5027586;28;20181;-70
2020/12/14 03:47:15;;;;;;;6.93;2.60;;;;;;;;;;5021478;28;20569;-70
2020/12/14 03:49:40;;;;;;;12.47;2.83;;;;;;;;;;5023259;28;20183;-70
2020/12/14 03:52:05;;;;;;;7.17;3.33;;;;;;;;;;5021523;28;20189;-70
2020/12/14 03:54:31;;;;;;;4.90;2.60;;;;;;;;;;5017855;28;20236;-71
2020/12/14 03:56:57;;;;;;;8.17;2.67;;;;;;;;;;5028714;28;20178;-70
2020/12/14 03:59:22;;;;;;;7.50;3.93;;;;;;;;;;5018788;28;20186;-71
2020/12/14 04:01:47;;;;;;;6.83;2.50;;;;;;;;;;5027734;28;20182;-70
2020/12/14 04:04:13;;;;;;;8.40;3.00;;;;;;;;;;5020242;28;20189;-70
2020/12/14 04:06:38;;;;;;;8.17;2.80;;;;;;;;;;5020780;28;20564;-71
2020/12/14 04:09:03;;;;;;;12.50;3.23;;;;;;;;;;5020155;28;20671;-71
2020/12/14 04:11:29;;;;;;;7.83;3.20;;;;;;;;;;5025076;28;20244;-70
2020/12/14 04:13:54;;;;;;;6.13;2.20;;;;;;;;;;5018071;28;20772;-70
2020/12/14 04:16:19;;;;;;;8.27;3.03;;;;;;;;;;5027592;28;20190;-71
2020/12/14 04:18:44;;;;;;;5.37;2.70;;;;;;;;;;5025862;28;20182;-70
2020/12/14 04:21:10;;;;;;;9.20;2.87;;;;;;;;;;5017470;28;20275;-70
2020/12/14 04:23:36;;;;;;;8.87;2.80;;;;;;;;;;5022538;28;20213;-70
2020/12/14 04:26:02;;;;;;;6.57;2.60;;;;;;;;;;5013400;28;20645;-70
2020/12/14 04:28:27;;;;;;;9.20;2.60;;;;;;;;;;5024214;28;20261;-70
2020/12/14 04:30:53;;;;;;;6.57;2.30;;;;;;;;;;5020081;28;20277;-70
2020/12/14 04:33:18;;;;;;;7.07;2.50;;;;;;;;;;5024643;28;20225;-71
2020/12/14 04:35:43;;;;;;;8.10;2.40;;;;;;;;;;5016825;28;20210;-71
2020/12/14 04:38:09;;;;;;;6.30;2.57;;;;;;;;;;5027890;28;20544;-70
2020/12/14 04:40:34;;;;;;;4.40;2.40;;;;;;;;;;5019046;28;20586;-70
2020/12/14 04:43:00;;;;;;;6.43;2.20;;;;;;;;;;5023514;28;20193;-70
2020/12/14 04:45:28;;;;;;;8.73;2.50;;;;;;;;;;5019952;28;20185;-70
2020/12/14 04:47:55;;;;;;;6.73;2.80;;;;;;;;;;5016829;28;20249;-70
2020/12/14 04:50:23;;;;;;;7.17;2.30;;;;;;;;;;5021007;28;20198;-70
2020/12/14 04:52:49;;;;;;;7.13;2.57;;;;;;;;;;5019487;28;20546;-70
2020/12/14 04:55:19;;;;;;;6.97;2.43;;;;;;;;;;5028571;28;20196;-70
2020/12/14 04:57:45;;;;;;;6.80;2.67;;;;;;;;;;5018746;28;20190;-70
2020/12/14 05:00:10;;;;;;;8.60;2.47;;;;;;;;;;5026579;28;20190;-70
2020/12/14 05:02:35;;;;;;;6.37;2.57;;;;;;;;;;5016090;28;20546;-71
2020/12/14 05:05:01;;;;;;;6.60;2.67;;;;;;;;;;5023522;28;20183;-70
2020/12/14 05:07:43;;;;;;;6.93;2.77;;;;;;;;;;5013082;28;20215;-70
2020/12/14 05:10:09;;;;;;;9.27;2.40;;;;;;;;;;5021165;28;20185;-71
2020/12/14 05:12:40;;;;;;;9.40;2.30;;;;;;;;;;5016138;28;20186;-70
2020/12/14 05:15:39;;;;;;;9.67;2.90;;;;;;;;;;5024300;28;20178;-70
2020/12/14 05:18:12;;;;;;;6.67;3.00;;;;;;;;;;5024787;28;20202;-70
2020/12/14 05:20:38;;;;;;;6.03;2.70;;;;;;;;;;5020465;28;20668;-70
2020/12/14 05:23:06;;;;;;;8.17;2.90;;;;;;;;;;5013395;28;20191;-70
2020/12/14 05:25:32;;;;;;;7.43;2.77;;;;;;;;;;5023369;28;20672;-70
2020/12/14 05:28:16;;;;;;;8.57;3.00;;;;;;;;;;5011719;28;20206;-71
2020/12/14 05:30:50;;;;;;;9.23;2.83;;;;;;;;;;5038284;28;20178;-71
2020/12/14 05:33:21;;;;;;;8.63;3.00;;;;;;;;;;5012789;28;20237;-70
2020/12/14 05:35:47;;;;;;;7.87;3.27;;;;;;;;;;5043437;28;20178;-71
2020/12/14 05:38:23;;;;;;;13.60;3.70;;;;;;;;;;5020189;28;20699;-71
2020/12/14 05:41:00;;;;;;;8.90;3.00;;;;;;;;;;5036951;28;20218;-71
2020/12/14 05:43:28;;;;;;;9.60;4.00;;;;;;;;;;5011823;28;20712;-70
2020/12/14 05:45:53;;;;;;;7.53;3.40;;;;;;;;;;5026063;28;20199;-71
2020/12/14 05:48:29;;;;;;;12.10;3.63;;;;;;;;;;5020721;28;20741;-71
2020/12/14 05:50:59;;;;;;;8.07;3.83;;;;;;;;;;5021583;28;20236;-71
2020/12/14 05:53:36;;;;;;;7.63;3.63;;;;;;;;;;5025601;28;20660;-70
2020/12/14 05:56:03;;;;;;;10.00;4.00;;;;;;;;;;5021430;28;20185;-70
2020/12/14 05:58:30;;;;;;;9.70;4.17;;;;;;;;;;5025086;28;20664;-70
2020/12/14 06:00:56;;;;;;;12.47;4.03;;;;;;;;;;5010821;28;20177;-70
2020/12/14 06:03:23;;;;;;;10.87;4.07;;;;;;;;;;5027808;28;20194;-70
2020/12/14 06:05:56;;;;;;;7.17;4.10;;;;;;;;;;5018603;28;20256;-70
2020/12/14 06:08:36;;;;;;;13.23;4.30;;;;;;;;;;5018814;28;20219;-70
2020/12/14 06:11:04;;;;;;;9.40;4.50;;;;;;;;;;5007149;28;20183;-70
2020/12/14 06:13:31;;;;;;;11.90;4.43;;;;;;;;;;5023717;28;20300;-70
2020/12/14 06:16:02;;;;;;;8.67;4.57;;;;;;;;;;5014347;28;20193;-70
2020/12/14 06:18:33;;;;;;;11.63;4.77;;;;;;;;;;5022582;28;20261;-70
2020/12/14 06:20:59;;;;;;;8.27;4.57;;;;;;;;;;5011941;28;20186;-71
2020/12/14 06:23:26;;;;;;;10.83;4.97;;;;;;;;;;5021862;28;20186;-70
2020/12/14 06:25:52;;;;;;;7.00;4.63;;;;;;;;;;5010430;28;20191;-70
2020/12/14 06:28:31;;;;;;;10.03;4.20;;;;;;;;;;5016527;28;20360;-70
2020/12/14 06:30:57;;;;;;;12.10;4.10;;;;;;;;;;5012918;28;21796;-71
2020/12/14 06:33:38;;;;;;;11.80;4.57;;;;;;;;;;5021993;28;20285;-70
2020/12/14 06:36:19;;;;;;;8.27;3.97;;;;;;;;;;5016943;28;20730;-70
2020/12/14 06:38:47;;;;;;;10.77;3.87;;;;;;;;;;5021685;28;20182;-70
2020/12/14 06:41:23;;;;;;;6.43;4.17;;;;;;;;;;5010542;28;20224;-70
2020/12/14 06:44:06;;;;;;;7.57;3.87;;;;;;;;;;5023031;28;20220;-70
2020/12/14 06:46:33;;;;;;;14.80;3.70;;;;;;;;;;5015700;28;20213;-70
2020/12/14 06:48:59;;;;;;;9.30;3.70;;;;;;;;;;5025877;28;20269;-70
2020/12/14 06:51:24;;;;;;;11.60;3.57;;;;;;;;;;5022600;28;20339;-71
2020/12/14 06:53:52;;;;;;;6.87;3.47;;;;;;;;;;5013526;28;20693;-71
2020/12/14 06:56:40;;;;;;;6.40;3.50;;;;;;;;;;5021864;28;20255;-71
2020/12/14 06:59:28;;;;;;;8.17;3.30;;;;;;;;;;5016112;28;20683;-72
2020/12/14 07:01:58;;;;;;;8.07;3.30;;;;;;;;;;5019567;28;20190;-71
2020/12/14 07:04:31;;;;;;;6.90;3.50;;;;;;;;;;5019543;28;20197;-71
2020/12/14 07:06:57;;;;;;;7.20;3.23;;;;;;;;;;5022547;28;20705;-72
2020/12/14 07:09:27;;;;;;;8.67;3.73;;;;;;;;;;5018314;28;20190;-71
2020/12/14 07:12:08;;;;;;;9.40;3.70;;;;;;;;;;5025817;28;20211;-71
2020/12/14 07:14:33;;;;;;;9.10;3.77;;;;;;;;;;5015667;28;20193;-71
2020/12/14 07:17:01;;;;;;;6.03;3.10;;;;;;;;;;5005989;28;20182;-71
2020/12/14 07:19:36;;;;;;;9.23;3.40;;;;;;;;;;5018964;28;20185;-71
2020/12/14 07:22:02;;;;;;;7.37;3.07;;;;;;;;;;5018350;28;20202;-71
2020/12/14 07:24:34;;;;;;;14.47;3.80;;;;;;;;;;5017474;28;20308;-71
2020/12/14 07:27:00;;;;;;;8.00;3.47;;;;;;;;;;5045951;28;20202;-72
2020/12/14 07:29:26;;;;;;;5.87;3.17;;;;;;;;;;5017870;28;20186;-72
2020/12/14 07:31:51;;;;;;;5.50;3.40;;;;;;;;;;5022432;28;20193;-73
2020/12/14 07:34:16;;;;;;;6.73;3.30;;;;;;;;;;5014162;28;22056;-73
2020/12/14 07:36:42;;;;;;;7.80;3.43;;;;;;;;;;5027437;28;20189;-73
2020/12/14 07:39:07;;;;;;;5.83;3.33;;;;;;;;;;5007341;28;20205;-74
2020/12/14 07:41:33;;;;;;;8.10;3.20;;;;;;;;;;5026502;28;20221;-72
2020/12/14 07:43:59;;;;;;;7.20;3.67;;;;;;;;;;5024763;28;20704;-73
2020/12/14 07:46:28;;;;;;;6.33;3.57;;;;;;;;;;5015597;28;20546;-74
2020/12/14 07:49:05;;;;;;;7.50;3.60;;;;;;;;;;5022754;28;20548;-74
2020/12/14 07:51:32;;;;;;;7.03;3.63;;;;;;;;;;5017906;28;20728;-73
2020/12/14 07:54:04;;;;;;;8.40;3.97;;;;;;;;;;5027152;28;20190;-73
2020/12/14 07:56:30;;;;;;;9.97;4.27;;;;;;;;;;5021136;28;20186;-73
2020/12/14 07:58:55;;;;;;;11.07;4.30;;;;;;;;;;5020038;28;20194;-73
2020/12/14 08:01:22;;;;;;;9.37;4.80;;;;;;;;;;5017925;28;20280;-73
2020/12/14 08:03:47;;;;;;;9.70;4.83;;;;;;;;;;5028196;28;20228;-72
2020/12/14 08:06:20;;;;;;;17.53;4.93;;;;;;;;;;5019814;28;20649;-74
2020/12/14 08:08:49;;;;;;;12.27;5.37;;;;;;;;;;5022120;28;20545;-74
2020/12/14 08:11:19;;;;;;;8.60;4.47;;;;;;;;;;5016556;28;20185;-73
2020/12/14 08:13:50;;;;;;;7.77;4.77;;;;;;;;;;5026006;28;20214;-73
2020/12/14 08:16:19;;;;;;;8.27;4.60;;;;;;;;;;5014835;28;20185;-74
2020/12/14 08:18:46;;;;;;;11.03;4.50;;;;;;;;;;5024234;28;20187;-72
2020/12/14 08:21:26;;;;;;;11.47;5.30;;;;;;;;;;5016467;28;20210;-71
2020/12/14 08:23:55;;;;;;;10.33;5.50;;;;;;;;;;5022719;28;20571;-71
2020/12/14 08:26:30;;;;;;;12.17;5.50;;;;;;;;;;5017703;28;20197;-71
2020/12/14 08:28:57;;;;;;;11.90;5.30;;;;;;;;;;5023735;28;20300;-71
2020/12/14 08:31:22;;;;;;;8.77;5.20;;;;;;;;;;5026243;28;20217;-71
2020/12/14 08:33:49;;;;;;;8.27;4.70;;;;;;;;;;5017094;28;20658;-72
2020/12/14 08:36:16;;;;;;;11.83;5.57;;;;;;;;;;5028491;28;20293;-71
2020/12/14 08:38:44;;;;;;;8.83;4.70;;;;;;;;;;5010127;28;20614;-71
2020/12/14 08:41:10;;;;;;;8.77;5.23;;;;;;;;;;5022610;28;20570;-71
2020/12/14 08:43:36;;;;;;;19.80;5.77;;;;;;;;;;5015217;28;20248;-71
2020/12/14 08:46:09;;;;;;;9.53;5.20;;;;;;;;;;5022960;28;20715;-71
2020/12/14 08:48:53;;;;;;;8.33;5.20;;;;;;;;;;5015878;28;20194;-71
2020/12/14 08:51:27;;;;;;;12.47;5.00;;;;;;;;;;5015539;28;20197;-71
2020/12/14 08:53:55;;;;;;;14.80;5.27;;;;;;;;;;5018224;28;20585;-71
2020/12/14 08:56:23;;;;;;;9.13;4.97;;;;;;;;;;5022347;28;20193;-71
2020/12/14 08:58:50;;;;;;;12.30;5.53;;;;;;;;;;5015469;28;20240;-70
2020/12/14 09:01:17;;;;;;;8.10;4.97;;;;;;;;;;5026323;28;20604;-72
2020/12/14 09:03:45;;;;;;;11.33;4.80;;;;;;;;;;5015265;28;20652;-72
2020/12/14 09:06:25;;;;;;;9.57;5.10;;;;;;;;;;5015723;28;20194;-71
2020/12/14 09:09:00;;;;;;;10.67;4.93;;;;;;;;;;5011261;28;20207;-72
2020/12/14 09:11:30;;;;;;;9.23;5.40;;;;;;;;;;5018076;28;20540;-71
2020/12/14 09:13:58;;;;;;;9.97;5.80;;;;;;;;;;5015646;28;20182;-72
2020/12/14 09:16:23;;;;;;;9.23;5.50;;;;;;;;;;5029345;28;20190;-71
2020/12/14 09:18:49;;;;;;;8.30;5.60;;;;;;;;;;5025757;28;20269;-72
2020/12/14 09:21:15;;;;;;;8.37;5.90;;;;;;;;;;5018267;28;20265;-71
2020/12/14 09:23:41;;;;;;;9.37;5.50;;;;;;;;;;5020766;28;20178;-72
2020/12/14 09:26:06;;;;;;;8.93;5.93;;;;;;;;;;5011741;28;20241;-72
2020/12/14 09:28:36;;;;;;;8.13;5.70;;;;;;;;;;5020769;28;20568;-71
2020/12/14 09:31:02;;;;;;;10.03;5.80;;;;;;;;;;5011918;28;20182;-72
2020/12/14 09:33:28;;;;;;;9.77;5.60;;;;;;;;;;5026371;28;20312;-72
2020/12/14 09:35:53;;;;;;;8.17;5.93;;;;;;;;;;5006967;28;20284;-71
2020/12/14 09:38:18;;;;;;;9.43;6.30;;;;;;;;;;5020435;28;20186;-71
2020/12/14 09:40:49;;;;;;;9.40;6.03;;;;;;;;;;5012318;28;20197;-71
2020/12/14 09:43:14;;;;;;;11.33;6.10;;;;;;;;;;5027371;28;20182;-72
2020/12/14 09:45:39;;;;;;;12.20;6.60;;;;;;;;;;5011453;28;20723;-72
2020/12/14 09:48:05;;;;;;;9.87;7.00;;;;;;;;;;5019355;28;20243;-71
2020/12/14 09:50:30;;;;;;;8.60;6.90;;;;;;;;;;5013795;28;20225;-71
2020/12/14 09:52:55;;;;;;;11.17;7.00;;;;;;;;;;5017446;28;20204;-71
2020/12/14 09:55:21;;;;;;;8.30;6.90;;;;;;;;;;5025463;28;20273;-72
2020/12/14 09:57:46;;;;;;;8.00;6.90;;;;;;;;;;5014388;28;20304;-72
2020/12/14 10:00:11;;;;;;;8.87;7.33;;;;;;;;;;5021211;28;20190;-72
2020/12/14 10:02:37;;;;;;;12.87;8.10;;;;;;;;;;5004947;28;20333;-72
2020/12/14 10:05:02;;;;;;;8.60;7.47;;;;;;;;;;5024529;28;20289;-71
2020/12/14 10:07:27;;;;;;;10.20;8.37;;;;;;;;;;5008372;28;20699;-71
2020/12/14 10:09:53;;;;;;;8.33;7.23;;;;;;;;;;5019365;28;20198;-71
2020/12/14 10:12:18;;;;;;;11.07;8.23;;;;;;;;;;5013111;28;20191;-71
2020/12/14 10:14:43;;;;;;;10.50;8.30;;;;;;;;;;5019853;28;20649;-71
2020/12/14 10:17:09;;;;;;;10.90;7.83;;;;;;;;;;5013870;28;20232;-71
2020/12/14 10:19:35;;;;;;;9.30;7.93;;;;;;;;;;5016538;28;20194;-70
2020/12/14 10:22:00;;;;;;;9.65;8.00;;;;;;;;;;5017744;28;20232;-71
2020/12/14 10:24:26;;;;;;;10.00;7.88;;;;;;;;;;5019597;28;20234;-71
2020/12/14 10:26:51;;;;;;;10.88;8.43;;;;;;;;;;5022178;28;20221;-71
2020/12/14 10:29:17;;;;;;;10.57;7.75;;;;;;;;;;5005263;28;20237;-71
2020/12/14 10:31:48;;;;;;;11.27;8.05;;;;;;;;;;5027238;28;20273;-71
2020/12/14 10:34:13;;;;;;;10.60;8.13;;;;;;;;;;5008206;28;20242;-71
2020/12/14 10:36:43;;;;;;;9.67;8.43;;;;;;;;;;5023245;28;20197;-71
2020/12/14 10:39:09;;;;;;;9.13;8.10;;;;;;;;;;5011395;28;20735;-71
2020/12/14 10:41:34;;;;;;;8.75;7.95;;;;;;;;;;5017633;28;20223;-70
2020/12/14 10:43:59;;;;;;;9.90;8.53;;;;;;;;;;5013894;28;20204;-71
2020/12/14 10:46:25;;;;;;;10.47;8.90;;;;;;;;;;5027493;28;20665;-71
2020/12/14 10:48:50;;;;;;;10.13;9.10;;;;;;;;;;5011133;28;20197;-71
2020/12/14 10:51:16;;;;;;;10.20;8.57;;;;;;;;;;5019109;28;20558;-71
2020/12/14 10:53:41;;;;;;;13.53;9.13;;;;;;;;;;5019541;28;20649;-71
2020/12/14 10:56:06;;;;;;;10.32;9.13;;;;;;;;;;5028154;28;20260;-71
2020/12/14 10:58:32;;;;;;;10.20;9.20;;;;;;;;;;5026658;28;20240;-71
2020/12/14 11:00:57;;;;;;;9.80;8.80;;;;;;;;;;5010261;28;20574;-71
2020/12/14 11:03:24;;;;;;;11.00;8.30;;;;;;;;;;5027899;28;20190;-71
2020/12/14 11:05:51;;;;;;;9.80;8.80;;;;;;;;;;5016865;28;20663;-71
2020/12/14 11:08:17;;;;;;;9.93;8.50;;;;;;;;;;5028688;28;20332;-71
2020/12/14 11:10:42;;;;;;;9.50;8.13;;;;;;;;;;5013841;28;20198;-71
2020/12/14 11:13:07;;;;;;;11.23;8.83;;;;;;;;;;5024959;28;20182;-71
2020/12/14 11:15:33;;;;;;;11.13;8.70;;;;;;;;;;5020715;28;20684;-71
2020/12/14 11:17:58;;;;;;;9.73;8.70;;;;;;;;;;5030395;28;20174;-71
2020/12/14 11:20:23;;;;;;;11.40;8.70;;;;;;;;;;5014515;28;20244;-71
2020/12/14 11:22:48;;;;;;;11.63;8.47;;;;;;;;;;5029128;28;20186;-71
2020/12/14 11:25:16;;;;;;;11.13;8.40;;;;;;;;;;5016806;28;20724;-70
2020/12/14 11:27:42;;;;;;;9.97;8.63;;;;;;;;;;5029166;28;20549;-71
2020/12/14 11:30:07;;;;;;;8.83;7.93;;;;;;;;;;5028027;28;20191;-71
2020/12/14 11:32:33;;;;;;;9.17;8.10;;;;;;;;;;5019046;28;20198;-71
2020/12/14 11:34:58;;;;;;;8.63;7.72;;;;;;;;;;5024210;28;20229;-71
2020/12/14 11:37:24;;;;;;;10.98;8.25;;;;;;;;;;5015815;28;20191;-71
2020/12/14 11:39:49;;;;;;;9.00;8.10;;;;;;;;;;5022463;28;20228;-71
2020/12/14 11:42:15;;;;;;;8.75;7.85;;;;;;;;;;5017065;28;20205;-71
2020/12/14 11:44:40;;;;;;;12.27;8.10;;;;;;;;;;5025346;28;20229;-71
2020/12/14 11:47:06;;;;;;;12.00;8.45;;;;;;;;;;5016914;28;20206;-71
2020/12/14 11:49:32;;;;;;;9.17;8.07;;;;;;;;;;5021489;28;20199;-71
2020/12/14 11:51:58;;;;;;;10.30;8.82;;;;;;;;;;5017961;28;20220;-71
2020/12/14 11:54:23;;;;;;;11.50;8.75;;;;;;;;;;5025371;28;20657;-71
2020/12/14 11:56:48;;;;;;;8.80;7.82;;;;;;;;;;5011100;28;20185;-71
2020/12/14 11:59:14;;;;;;;8.10;7.30;;;;;;;;;;5028438;28;20201;-71
2020/12/14 12:01:40;;;;;;;8.35;7.43;;;;;;;;;;5018998;28;20186;-71
2020/12/14 12:04:06;;;;;;;9.27;7.72;;;;;;;;;;5015438;28;20191;-71
2020/12/14 12:06:31;;;;;;;8.50;7.00;;;;;;;;;;5026083;28;20226;-71
2020/12/14 12:08:57;;;;;;;8.70;7.55;;;;;;;;;;5019271;28;20268;-71
2020/12/14 12:11:23;;;;;;;11.98;7.28;;;;;;;;;;5028543;28;20182;-71
2020/12/14 12:13:49;;;;;;;7.53;6.63;;;;;;;;;;5018634;28;20178;-71
2020/12/14 12:16:15;;;;;;;7.75;6.95;;;;;;;;;;5018553;28;20556;-71
2020/12/14 12:18:40;;;;;;;7.47;6.72;;;;;;;;;;5013502;28;20190;-71
2020/12/14 12:21:06;;;;;;;8.20;6.30;;;;;;;;;;5029435;28;20178;-70
2020/12/14 12:23:31;;;;;;;8.60;6.38;;;;;;;;;;5019203;28;20655;-71
2020/12/14 12:25:57;;;;;;;7.38;5.78;;;;;;;;;;5028768;28;20186;-71
2020/12/14 12:28:22;;;;;;;7.20;6.45;;;;;;;;;;5014892;28;20210;-71
2020/12/14 12:30:47;;;;;;;8.25;5.70;;;;;;;;;;5022450;28;20186;-71
2020/12/14 12:33:13;;;;;;;5.88;5.10;;;;;;;;;;5017021;28;20252;-71
2020/12/14 12:35:38;;;;;;;8.23;5.97;;;;;;;;;;5013928;28;20536;-71
2020/12/14 12:38:03;;;;;;;10.07;5.77;;;;;;;;;;5017837;28;20610;-71
2020/12/14 12:40:29;;;;;;;6.55;5.90;;;;;;;;;;5017197;28;20193;-71
2020/12/14 12:42:54;;;;;;;7.25;5.90;;;;;;;;;;5018690;28;20646;-71
2020/12/14 12:45:19;;;;;;;6.55;5.57;;;;;;;;;;5019238;28;20678;-71
2020/12/14 12:47:45;;;;;;;10.00;5.70;;;;;;;;;;5021494;28;20684;-71
2020/12/14 12:50:10;;;;;;;6.63;5.18;;;;;;;;;;5009426;28;20190;-71
2020/12/14 12:52:35;;;;;;;7.03;5.63;;;;;;;;;;5026205;28;20216;-71
2020/12/14 12:55:01;;;;;;;7.13;5.43;;;;;;;;;;5010649;28;20243;-71
2020/12/14 12:57:26;;;;;;;9.85;5.40;;;;;;;;;;5019896;28;20193;-71
2020/12/14 12:59:52;;;;;;;6.85;5.47;;;;;;;;;;5009136;28;20175;-71
2020/12/14 13:02:17;;;;;;;5.88;5.28;;;;;;;;;;5024912;28;20653;-71
2020/12/14 13:04:42;;;;;;;8.05;6.20;;;;;;;;;;5022951;28;20269;-71
2020/12/14 13:07:08;;;;;;;6.60;5.35;;;;;;;;;;5014799;28;20296;-71
2020/12/14 13:09:33;;;;;;;7.73;5.47;;;;;;;;;;5028589;28;20257;-71
2020/12/14 13:11:59;;;;;;;8.07;5.67;;;;;;;;;;5017539;28;20232;-71
2020/12/14 13:14:24;;;;;;;10.02;6.22;;;;;;;;;;5025912;28;20186;-71
2020/12/14 13:16:49;;;;;;;7.97;6.27;;;;;;;;;;5015865;28;20179;-71
2020/12/14 13:19:15;;;;;;;7.33;5.97;;;;;;;;;;5024469;28;20179;-71
2020/12/14 13:21:40;;;;;;;6.68;5.93;;;;;;;;;;5007557;28;20228;-71
2020/12/14 13:24:06;;;;;;;6.57;5.30;;;;;;;;;;5028557;28;20197;-71
2020/12/14 13:26:32;;;;;;;7.40;5.90;;;;;;;;;;5015756;28;20181;-71
2020/12/14 13:28:58;;;;;;;6.53;5.90;;;;;;;;;;5017109;28;20650;-71
2020/12/14 13:31:24;;;;;;;8.57;6.40;;;;;;;;;;5015649;28;20186;-71
2020/12/14 13:33:51;;;;;;;8.33;6.63;;;;;;;;;;5024173;28;20643;-71
2020/12/14 13:36:17;;;;;;;6.50;5.72;;;;;;;;;;5022128;28;20190;-71
2020/12/14 13:38:43;;;;;;;8.90;5.73;;;;;;;;;;5017570;28;20178;-71
2020/12/14 13:41:09;;;;;;;7.50;6.70;;;;;;;;;;5036575;28;20251;-71
2020/12/14 13:43:34;;;;;;;7.47;6.65;;;;;;;;;;5017390;28;20189;-71
2020/12/14 13:46:00;;;;;;;9.50;6.40;;;;;;;;;;5024489;28;20689;-71
2020/12/14 13:48:25;;;;;;;7.23;6.53;;;;;;;;;;5017305;28;20270;-71
2020/12/14 13:50:51;;;;;;;11.07;6.30;;;;;;;;;;5024490;28;20181;-71
2020/12/14 13:53:16;;;;;;;10.27;6.35;;;;;;;;;;5017375;28;20188;-71
2020/12/14 13:55:41;;;;;;;8.07;6.55;;;;;;;;;;5023737;28;20189;-71
2020/12/14 13:58:07;;;;;;;13.88;7.07;;;;;;;;;;4315461;28;10000824;-71
2020/12/14 14:00:32;;;;;;;13.32;7.75;;;;;;;;;;5017938;28;20201;-72
2020/12/14 14:02:57;;;;;;;9.67;7.50;;;;;;;;;;4664439;28;10000142;-71
2020/12/14 14:05:24;;;;;;;8.23;7.03;;;;;;;;;;5015664;28;20193;-72
2020/12/14 14:07:49;;;;;;;8.82;6.93;;;;;;;;;;5015937;28;20661;-71
2020/12/14 14:10:15;;;;;;;10.80;6.83;;;;;;;;;;5004358;28;20190;-71
2020/12/14 14:12:40;;;;;;;7.32;6.53;;;;;;;;;;5018253;28;20339;-72
2020/12/14 14:15:06;;;;;;;7.97;6.70;;;;;;;;;;5001642;28;20211;-71
2020/12/14 14:17:31;;;;;;;7.87;6.50;;;;;;;;;;5022779;28;20271;-71
2020/12/14 14:19:57;;;;;;;9.23;6.60;;;;;;;;;;5016236;28;20296;-71
2020/12/14 14:22:22;;;;;;;7.67;6.77;;;;;;;;;;5024935;28;20187;-71
2020/12/14 14:24:48;;;;;;;8.83;6.90;;;;;;;;;;5015964;28;20177;-71
2020/12/14 14:27:14;;;;;;;9.23;6.97;;;;;;;;;;5022363;28;20218;-71
2020/12/14 14:29:39;;;;;;;8.07;6.80;;;;;;;;;;5014090;28;20779;-71
2020/12/14 14:32:05;;;;;;;8.18;6.85;;;;;;;;;;5025457;28;20328;-71
2020/12/14 14:34:30;;;;;;;7.83;6.33;;;;;;;;;;5032885;28;20255;-71
2020/12/14 14:36:58;;;;;;;10.02;6.80;;;;;;;;;;5023933;28;20187;-72